sensor_id;sensor_type;location;lat;lon;timestamp;pressure;altitude;pressure_sealevel;temperature;humidity
75996;BME280;64681;49.738;9.004;2023-12-20T00:01:00;99511.56;;;5.05;100.00
75996;BME280;64681;49.738;9.004;2023-12-20T00:03:25;99511.47;;;5.11;100.00
75996;BME280;64681;49.738;9.004;2023-12-20T00:05:51;99508.72;;;4.83;100.00
75996;BME280;64681;49.738;9.004;2023-12-20T00:08:16;99510.22;;;4.89;100.00
75996;BME280;64681;49.738;9.004;2023-12-20T00:10:43;99516.66;;;5.02;100.00
75996;BME280;64681;49.738;9.004;2023-12-20T00:13:10;99506.22;;;4.72;100.00
75996;BME280;64681;49.738;9.004;2023-12-20T00:15:36;99495.94;;;4.52;100.00
75996;BME280;64681;49.738;9.004;2023-12-20T00:18:02;99496.97;;;4.75;100.00
75996;BME280;64681;49.738;9.004;2023-12-20T00:20:28;99505.22;;;4.87;100.00
75996;BME280;64681;49.738;9.004;2023-12-20T00:22:57;99510.88;;;4.62;100.00
75996;BME280;64681;49.738;9.004;2023-12-20T00:25:24;99488.00;;;4.90;100.00
75996;BME280;64681;49.738;9.004;2023-12-20T00:27:50;99471.19;;;4.62;100.00
75996;BME280;64681;49.738;9.004;2023-12-20T00:30:16;99483.34;;;4.82;100.00
75996;BME280;64681;49.738;9.004;2023-12-20T00:32:41;99470.44;;;4.61;100.00
75996;BME280;64681;49.738;9.004;2023-12-20T00:35:18;99484.84;;;4.69;100.00
75996;BME280;64681;49.738;9.004;2023-12-20T00:37:44;99492.16;;;4.58;100.00
75996;BME280;64681;49.738;9.004;2023-12-20T00:40:10;99491.72;;;4.51;100.00
75996;BME280;64681;49.738;9.004;2023-12-20T00:42:36;99473.78;;;4.28;100.00
75996;BME280;64681;49.738;9.004;2023-12-20T00:45:02;99476.88;;;4.36;100.00
75996;BME280;64681;49.738;9.004;2023-12-20T00:47:32;99485.50;;;4.60;100.00
75996;BME280;64681;49.738;9.004;2023-12-20T00:49:58;99446.84;;;4.46;100.00
75996;BME280;64681;49.738;9.004;2023-12-20T00:52:24;99461.28;;;4.53;100.00
75996;BME280;64681;49.738;9.004;2023-12-20T00:54:51;99486.34;;;4.94;100.00
75996;BME280;64681;49.738;9.004;2023-12-20T00:57:17;99453.47;;;4.81;100.00
75996;BME280;64681;49.738;9.004;2023-12-20T00:59:43;99465.44;;;4.93;100.00
75996;BME280;64681;49.738;9.004;2023-12-20T01:02:08;99452.16;;;4.98;100.00
75996;BME280;64681;49.738;9.004;2023-12-20T01:04:35;99479.91;;;5.00;100.00
75996;BME280;64681;49.738;9.004;2023-12-20T01:07:01;99458.53;;;4.97;100.00
75996;BME280;64681;49.738;9.004;2023-12-20T01:09:26;99452.44;;;4.96;100.00
75996;BME280;64681;49.738;9.004;2023-12-20T01:11:52;99453.53;;;4.76;100.00
75996;BME280;64681;49.738;9.004;2023-12-20T01:14:19;99456.91;;;4.63;100.00
75996;BME280;64681;49.738;9.004;2023-12-20T01:16:45;99452.47;;;4.58;100.00
75996;BME280;64681;49.738;9.004;2023-12-20T01:19:10;99452.81;;;4.89;100.00
75996;BME280;64681;49.738;9.004;2023-12-20T01:21:36;99465.44;;;4.93;100.00
75996;BME280;64681;49.738;9.004;2023-12-20T01:24:02;99447.44;;;4.95;100.00
75996;BME280;64681;49.738;9.004;2023-12-20T01:26:27;99456.50;;;5.07;100.00
75996;BME280;64681;49.738;9.004;2023-12-20T01:28:53;99440.00;;;4.97;99.34
75996;BME280;64681;49.738;9.004;2023-12-20T01:31:19;99459.59;;;4.96;100.00
75996;BME280;64681;49.738;9.004;2023-12-20T01:33:44;99446.91;;;4.79;100.00
75996;BME280;64681;49.738;9.004;2023-12-20T01:36:10;99452.25;;;4.73;100.00
75996;BME280;64681;49.738;9.004;2023-12-20T01:38:37;99442.13;;;4.42;100.00
75996;BME280;64681;49.738;9.004;2023-12-20T01:41:02;99455.84;;;4.25;100.00
75996;BME280;64681;49.738;9.004;2023-12-20T01:43:29;99457.34;;;4.51;100.00
75996;BME280;64681;49.738;9.004;2023-12-20T01:45:57;99468.34;;;4.77;100.00
75996;BME280;64681;49.738;9.004;2023-12-20T01:48:24;99464.84;;;4.43;100.00
75996;BME280;64681;49.738;9.004;2023-12-20T01:50:51;99463.50;;;4.46;100.00
75996;BME280;64681;49.738;9.004;2023-12-20T01:53:19;99478.13;;;4.77;100.00
75996;BME280;64681;49.738;9.004;2023-12-20T01:55:48;99458.41;;;4.69;100.00
75996;BME280;64681;49.738;9.004;2023-12-20T01:58:17;99477.13;;;4.72;100.00
75996;BME280;64681;49.738;9.004;2023-12-20T02:00:43;99458.56;;;4.58;100.00
75996;BME280;64681;49.738;9.004;2023-12-20T02:03:08;99454.88;;;4.40;100.00
75996;BME280;64681;49.738;9.004;2023-12-20T02:05:35;99457.41;;;4.65;100.00
75996;BME280;64681;49.738;9.004;2023-12-20T02:08:02;99472.56;;;4.59;100.00
75996;BME280;64681;49.738;9.004;2023-12-20T02:10:28;99464.97;;;4.33;100.00
75996;BME280;64681;49.738;9.004;2023-12-20T02:12:54;99447.06;;;4.49;100.00
75996;BME280;64681;49.738;9.004;2023-12-20T02:15:20;99470.50;;;4.75;100.00
75996;BME280;64681;49.738;9.004;2023-12-20T02:17:47;99470.78;;;4.54;100.00
75996;BME280;64681;49.738;9.004;2023-12-20T02:20:14;99448.34;;;4.52;100.00
75996;BME280;64681;49.738;9.004;2023-12-20T02:22:39;99456.56;;;4.31;100.00
75996;BME280;64681;49.738;9.004;2023-12-20T02:25:05;99450.28;;;4.46;100.00
75996;BME280;64681;49.738;9.004;2023-12-20T02:27:31;99452.06;;;4.51;100.00
75996;BME280;64681;49.738;9.004;2023-12-20T02:29:57;99454.06;;;4.40;100.00
75996;BME280;64681;49.738;9.004;2023-12-20T02:32:24;99460.72;;;4.56;100.00
75996;BME280;64681;49.738;9.004;2023-12-20T02:34:54;99469.38;;;4.62;100.00
75996;BME280;64681;49.738;9.004;2023-12-20T02:37:20;99441.63;;;4.21;100.00
75996;BME280;64681;49.738;9.004;2023-12-20T02:39:45;99455.50;;;4.51;100.00
75996;BME280;64681;49.738;9.004;2023-12-20T02:42:11;99447.41;;;4.42;100.00
75996;BME280;64681;49.738;9.004;2023-12-20T02:44:36;99460.41;;;4.58;100.00
75996;BME280;64681;49.738;9.004;2023-12-20T02:47:02;99442.28;;;4.32;100.00
75996;BME280;64681;49.738;9.004;2023-12-20T02:49:28;99451.41;;;4.59;100.00
75996;BME280;64681;49.738;9.004;2023-12-20T02:51:54;99465.06;;;4.66;100.00
75996;BME280;64681;49.738;9.004;2023-12-20T02:54:19;99453.63;;;4.33;100.00
75996;BME280;64681;49.738;9.004;2023-12-20T02:56:45;99451.91;;;4.61;100.00
75996;BME280;64681;49.738;9.004;2023-12-20T02:59:10;99432.41;;;4.38;100.00
75996;BME280;64681;49.738;9.004;2023-12-20T03:01:43;99443.78;;;4.57;100.00
75996;BME280;64681;49.738;9.004;2023-12-20T03:04:09;99440.00;;;4.44;100.00
75996;BME280;64681;49.738;9.004;2023-12-20T03:06:35;99415.63;;;4.28;100.00
75996;BME280;64681;49.738;9.004;2023-12-20T03:09:00;99427.72;;;4.35;100.00
75996;BME280;64681;49.738;9.004;2023-12-20T03:11:29;99427.41;;;4.55;100.00
75996;BME280;64681;49.738;9.004;2023-12-20T03:13:56;99450.81;;;4.81;100.00
75996;BME280;64681;49.738;9.004;2023-12-20T03:19:39;99442.63;;;4.64;100.00
75996;BME280;64681;49.738;9.004;2023-12-20T03:22:05;99455.69;;;4.74;100.00
75996;BME280;64681;49.738;9.004;2023-12-20T03:24:30;99461.19;;;4.78;100.00
75996;BME280;64681;49.738;9.004;2023-12-20T03:26:56;99446.19;;;4.73;100.00
75996;BME280;64681;49.738;9.004;2023-12-20T03:29:21;99457.75;;;4.77;100.00
75996;BME280;64681;49.738;9.004;2023-12-20T03:31:47;99463.53;;;4.98;100.00
75996;BME280;64681;49.738;9.004;2023-12-20T03:34:13;99451.19;;;4.55;100.00
75996;BME280;64681;49.738;9.004;2023-12-20T03:36:38;99459.03;;;4.80;100.00
75996;BME280;64681;49.738;9.004;2023-12-20T03:39:04;99447.38;;;4.81;100.00
75996;BME280;64681;49.738;9.004;2023-12-20T03:41:31;99439.75;;;4.79;100.00
75996;BME280;64681;49.738;9.004;2023-12-20T03:43:56;99443.16;;;4.80;100.00
75996;BME280;64681;49.738;9.004;2023-12-20T03:46:22;99464.28;;;4.66;100.00
75996;BME280;64681;49.738;9.004;2023-12-20T03:48:49;99450.84;;;4.62;100.00
75996;BME280;64681;49.738;9.004;2023-12-20T03:51:14;99451.75;;;4.71;100.00
75996;BME280;64681;49.738;9.004;2023-12-20T03:53:40;99453.56;;;4.57;100.00
75996;BME280;64681;49.738;9.004;2023-12-20T03:56:06;99443.47;;;4.78;100.00
75996;BME280;64681;49.738;9.004;2023-12-20T03:58:31;99457.00;;;4.90;100.00
75996;BME280;64681;49.738;9.004;2023-12-20T04:00:57;99433.19;;;4.90;100.00
75996;BME280;64681;49.738;9.004;2023-12-20T04:03:23;99447.94;;;4.97;100.00
75996;BME280;64681;49.738;9.004;2023-12-20T04:05:48;99443.00;;;4.90;100.00
75996;BME280;64681;49.738;9.004;2023-12-20T04:08:14;99454.13;;;5.06;100.00
75996;BME280;64681;49.738;9.004;2023-12-20T04:10:39;99447.13;;;4.82;100.00
75996;BME280;64681;49.738;9.004;2023-12-20T04:13:05;99447.13;;;4.96;100.00
75996;BME280;64681;49.738;9.004;2023-12-20T04:15:30;99451.91;;;5.27;100.00
75996;BME280;64681;49.738;9.004;2023-12-20T04:17:56;99441.06;;;5.29;99.93
75996;BME280;64681;49.738;9.004;2023-12-20T04:20:21;99451.03;;;5.32;99.64
75996;BME280;64681;49.738;9.004;2023-12-20T04:22:47;99454.97;;;5.34;99.70
75996;BME280;64681;49.738;9.004;2023-12-20T04:25:13;99435.78;;;5.10;100.00
75996;BME280;64681;49.738;9.004;2023-12-20T04:27:38;99483.72;;;5.08;100.00
75996;BME280;64681;49.738;9.004;2023-12-20T04:30:04;99484.59;;;5.36;100.00
75996;BME280;64681;49.738;9.004;2023-12-20T04:32:30;99467.66;;;5.04;100.00
75996;BME280;64681;49.738;9.004;2023-12-20T04:34:56;99475.03;;;5.07;100.00
75996;BME280;64681;49.738;9.004;2023-12-20T04:37:22;99480.00;;;5.09;100.00
75996;BME280;64681;49.738;9.004;2023-12-20T04:39:48;99492.31;;;5.00;100.00
75996;BME280;64681;49.738;9.004;2023-12-20T04:42:13;99479.91;;;5.00;100.00
75996;BME280;64681;49.738;9.004;2023-12-20T04:44:39;99468.94;;;5.07;100.00
75996;BME280;64681;49.738;9.004;2023-12-20T04:47:04;99485.72;;;5.16;100.00
75996;BME280;64681;49.738;9.004;2023-12-20T04:49:30;99486.59;;;5.12;100.00
75996;BME280;64681;49.738;9.004;2023-12-20T04:51:55;99484.38;;;5.00;100.00
75996;BME280;64681;49.738;9.004;2023-12-20T04:54:21;99491.72;;;5.22;100.00
75996;BME280;64681;49.738;9.004;2023-12-20T04:56:47;99508.47;;;5.17;100.00
75996;BME280;64681;49.738;9.004;2023-12-20T04:59:13;99502.00;;;4.90;100.00
75996;BME280;64681;49.738;9.004;2023-12-20T05:01:38;99488.91;;;4.99;100.00
75996;BME280;64681;49.738;9.004;2023-12-20T05:04:04;99507.00;;;5.11;100.00
75996;BME280;64681;49.738;9.004;2023-12-20T05:06:30;99504.56;;;5.15;100.00
75996;BME280;64681;49.738;9.004;2023-12-20T05:08:55;99502.50;;;4.93;100.00
75996;BME280;64681;49.738;9.004;2023-12-20T05:11:21;99508.00;;;4.96;100.00
75996;BME280;64681;49.738;9.004;2023-12-20T05:13:47;99503.94;;;5.18;100.00
75996;BME280;64681;49.738;9.004;2023-12-20T05:16:12;99505.13;;;5.12;100.00
75996;BME280;64681;49.738;9.004;2023-12-20T05:18:40;99512.66;;;5.37;100.00
75996;BME280;64681;49.738;9.004;2023-12-20T05:21:05;99509.94;;;4.90;100.00
75996;BME280;64681;49.738;9.004;2023-12-20T05:23:31;99523.53;;;4.84;100.00
75996;BME280;64681;49.738;9.004;2023-12-20T05:25:57;99520.69;;;4.80;100.00
75996;BME280;64681;49.738;9.004;2023-12-20T05:28:22;99551.91;;;5.16;100.00
75996;BME280;64681;49.738;9.004;2023-12-20T05:30:48;99554.31;;;5.32;100.00
75996;BME280;64681;49.738;9.004;2023-12-20T05:43:34;99542.88;;;5.17;100.00
75996;BME280;64681;49.738;9.004;2023-12-20T05:46:42;99551.84;;;5.02;100.00
75996;BME280;64681;49.738;9.004;2023-12-20T05:50:06;99561.31;;;4.89;100.00
75996;BME280;64681;49.738;9.004;2023-12-20T05:53:18;99569.22;;;4.70;100.00
75996;BME280;64681;49.738;9.004;2023-12-20T05:55:43;99583.94;;;4.77;100.00
75996;BME280;64681;49.738;9.004;2023-12-20T05:58:09;99582.16;;;4.72;100.00
75996;BME280;64681;49.738;9.004;2023-12-20T06:00:34;99594.88;;;4.70;100.00
75996;BME280;64681;49.738;9.004;2023-12-20T06:03:00;99586.09;;;4.74;100.00
75996;BME280;64681;49.738;9.004;2023-12-20T06:05:26;99602.97;;;4.79;100.00
75996;BME280;64681;49.738;9.004;2023-12-20T06:07:51;99602.03;;;4.69;100.00
75996;BME280;64681;49.738;9.004;2023-12-20T06:10:17;99595.63;;;4.95;100.00
75996;BME280;64681;49.738;9.004;2023-12-20T06:12:43;99589.59;;;4.70;100.00
75996;BME280;64681;49.738;9.004;2023-12-20T06:15:09;99597.19;;;4.77;100.00
75996;BME280;64681;49.738;9.004;2023-12-20T06:17:34;99613.88;;;4.53;100.00
75996;BME280;64681;49.738;9.004;2023-12-20T06:20:01;99612.34;;;4.47;100.00
75996;BME280;64681;49.738;9.004;2023-12-20T06:22:26;99600.09;;;4.32;100.00
75996;BME280;64681;49.738;9.004;2023-12-20T06:24:52;99606.13;;;4.37;100.00
75996;BME280;64681;49.738;9.004;2023-12-20T06:27:17;99602.59;;;4.18;100.00
75996;BME280;64681;49.738;9.004;2023-12-20T06:29:43;99610.22;;;4.24;100.00
75996;BME280;64681;49.738;9.004;2023-12-20T06:32:10;99614.81;;;4.14;100.00
75996;BME280;64681;49.738;9.004;2023-12-20T06:34:35;99617.84;;;4.02;100.00
75996;BME280;64681;49.738;9.004;2023-12-20T06:37:01;99622.59;;;4.00;100.00
75996;BME280;64681;49.738;9.004;2023-12-20T06:39:27;99617.44;;;3.89;100.00
75996;BME280;64681;49.738;9.004;2023-12-20T06:41:53;99618.28;;;3.79;100.00
75996;BME280;64681;49.738;9.004;2023-12-20T06:44:19;99623.50;;;3.90;100.00
75996;BME280;64681;49.738;9.004;2023-12-20T06:46:44;99623.31;;;3.81;100.00
75996;BME280;64681;49.738;9.004;2023-12-20T06:49:16;99610.50;;;3.64;100.00
75996;BME280;64681;49.738;9.004;2023-12-20T06:51:44;99604.03;;;3.51;100.00
75996;BME280;64681;49.738;9.004;2023-12-20T06:54:09;99606.03;;;3.64;100.00
75996;BME280;64681;49.738;9.004;2023-12-20T06:56:35;99595.97;;;3.67;99.65
75996;BME280;64681;49.738;9.004;2023-12-20T06:59:00;99616.28;;;3.71;100.00
75996;BME280;64681;49.738;9.004;2023-12-20T07:01:26;99600.78;;;3.59;100.00
75996;BME280;64681;49.738;9.004;2023-12-20T07:03:52;99605.56;;;3.57;100.00
75996;BME280;64681;49.738;9.004;2023-12-20T07:06:17;99591.88;;;3.50;100.00
75996;BME280;64681;49.738;9.004;2023-12-20T07:08:43;99579.78;;;3.44;98.72
75996;BME280;64681;49.738;9.004;2023-12-20T07:11:09;99620.22;;;3.39;99.95
75996;BME280;64681;49.738;9.004;2023-12-20T07:13:34;99615.44;;;3.41;98.23
75996;BME280;64681;49.738;9.004;2023-12-20T07:16:00;99626.09;;;3.26;99.22
75996;BME280;64681;49.738;9.004;2023-12-20T07:18:25;99609.03;;;3.13;100.00
75996;BME280;64681;49.738;9.004;2023-12-20T07:20:51;99617.25;;;3.06;100.00
75996;BME280;64681;49.738;9.004;2023-12-20T07:23:17;99628.31;;;3.08;100.00
75996;BME280;64681;49.738;9.004;2023-12-20T07:25:42;99634.03;;;3.21;100.00
75996;BME280;64681;49.738;9.004;2023-12-20T07:28:08;99624.59;;;3.14;100.00
75996;BME280;64681;49.738;9.004;2023-12-20T07:30:34;99626.16;;;3.15;100.00
75996;BME280;64681;49.738;9.004;2023-12-20T07:32:59;99643.06;;;3.14;98.68
75996;BME280;64681;49.738;9.004;2023-12-20T07:35:26;99634.25;;;2.84;100.00
75996;BME280;64681;49.738;9.004;2023-12-20T07:37:51;99652.66;;;2.90;100.00
75996;BME280;64681;49.738;9.004;2023-12-20T07:40:17;99656.91;;;2.80;100.00
75996;BME280;64681;49.738;9.004;2023-12-20T07:42:42;99656.66;;;2.77;100.00
75996;BME280;64681;49.738;9.004;2023-12-20T07:45:08;99649.56;;;2.77;100.00
75996;BME280;64681;49.738;9.004;2023-12-20T07:47:35;99660.31;;;2.91;99.74
75996;BME280;64681;49.738;9.004;2023-12-20T07:50:01;99654.03;;;2.82;100.00
75996;BME280;64681;49.738;9.004;2023-12-20T07:52:29;99672.72;;;2.91;100.00
75996;BME280;64681;49.738;9.004;2023-12-20T07:54:54;99661.31;;;3.06;100.00
75996;BME280;64681;49.738;9.004;2023-12-20T07:57:21;99664.84;;;3.30;100.00
75996;BME280;64681;49.738;9.004;2023-12-20T07:59:46;99659.31;;;3.32;100.00
75996;BME280;64681;49.738;9.004;2023-12-20T08:02:12;99664.63;;;3.67;100.00
75996;BME280;64681;49.738;9.004;2023-12-20T08:04:37;99662.72;;;3.72;100.00
75996;BME280;64681;49.738;9.004;2023-12-20T08:07:04;99650.47;;;3.87;100.00
75996;BME280;64681;49.738;9.004;2023-12-20T08:09:29;99667.50;;;4.05;100.00
75996;BME280;64681;49.738;9.004;2023-12-20T08:11:55;99663.16;;;4.14;100.00
75996;BME280;64681;49.738;9.004;2023-12-20T08:14:21;99662.06;;;4.20;100.00
75996;BME280;64681;49.738;9.004;2023-12-20T08:16:46;99662.97;;;4.35;99.00
75996;BME280;64681;49.738;9.004;2023-12-20T08:19:12;99666.91;;;4.37;99.65
75996;BME280;64681;49.738;9.004;2023-12-20T08:21:39;99643.13;;;4.37;97.79
75996;BME280;64681;49.738;9.004;2023-12-20T08:24:04;99672.59;;;4.74;96.78
75996;BME280;64681;49.738;9.004;2023-12-20T08:26:30;99673.56;;;5.02;94.93
75996;BME280;64681;49.738;9.004;2023-12-20T08:28:56;99672.88;;;4.72;94.85
75996;BME280;64681;49.738;9.004;2023-12-20T08:31:21;99674.66;;;4.77;95.94
75996;BME280;64681;49.738;9.004;2023-12-20T08:33:48;99651.66;;;4.53;95.89
75996;BME280;64681;49.738;9.004;2023-12-20T08:36:14;99680.25;;;4.51;95.57
75996;BME280;64681;49.738;9.004;2023-12-20T08:38:40;99676.13;;;4.64;94.82
75996;BME280;64681;49.738;9.004;2023-12-20T08:41:06;99670.59;;;4.66;93.65
75996;BME280;64681;49.738;9.004;2023-12-20T08:43:32;99682.22;;;4.89;93.29
75996;BME280;64681;49.738;9.004;2023-12-20T08:45:59;99691.03;;;5.03;93.23
75996;BME280;64681;49.738;9.004;2023-12-20T08:48:24;99687.09;;;5.01;92.76
75996;BME280;64681;49.738;9.004;2023-12-20T08:50:50;99698.03;;;4.94;92.81
75996;BME280;64681;49.738;9.004;2023-12-20T08:53:20;99687.91;;;5.01;92.71
75996;BME280;64681;49.738;9.004;2023-12-20T08:55:46;99676.91;;;5.13;91.84
75996;BME280;64681;49.738;9.004;2023-12-20T08:58:12;99676.91;;;5.13;89.25
75996;BME280;64681;49.738;9.004;2023-12-20T09:00:37;99686.47;;;5.28;90.18
75996;BME280;64681;49.738;9.004;2023-12-20T09:03:04;99682.88;;;5.19;89.82
75996;BME280;64681;49.738;9.004;2023-12-20T09:05:30;99689.22;;;5.42;89.11
75996;BME280;64681;49.738;9.004;2023-12-20T09:07:56;99683.28;;;5.31;87.81
75996;BME280;64681;49.738;9.004;2023-12-20T09:10:21;99684.03;;;5.32;88.04
75996;BME280;64681;49.738;9.004;2023-12-20T09:12:53;99696.66;;;5.40;86.84
75996;BME280;64681;49.738;9.004;2023-12-20T09:15:26;99695.72;;;5.31;87.24
75996;BME280;64681;49.738;9.004;2023-12-20T09:17:53;99700.44;;;5.53;86.86
75996;BME280;64681;49.738;9.004;2023-12-20T09:20:19;99700.22;;;5.30;86.31
75996;BME280;64681;49.738;9.004;2023-12-20T09:22:45;99699.81;;;5.42;87.21
75996;BME280;64681;49.738;9.004;2023-12-20T09:25:11;99688.69;;;5.59;86.91
75996;BME280;64681;49.738;9.004;2023-12-20T09:27:38;99700.84;;;5.79;85.00
75996;BME280;64681;49.738;9.004;2023-12-20T09:30:04;99694.50;;;5.94;83.62
75996;BME280;64681;49.738;9.004;2023-12-20T09:32:31;99694.47;;;5.99;84.03
75996;BME280;64681;49.738;9.004;2023-12-20T09:34:56;99689.19;;;5.80;84.63
75996;BME280;64681;49.738;9.004;2023-12-20T09:37:25;99691.00;;;5.66;84.10
75996;BME280;64681;49.738;9.004;2023-12-20T09:39:51;99693.84;;;5.50;84.84
75996;BME280;64681;49.738;9.004;2023-12-20T09:42:47;99699.72;;;5.66;86.43
75996;BME280;64681;49.738;9.004;2023-12-20T09:45:09;99709.34;;;5.76;85.35
75996;BME280;64681;49.738;9.004;2023-12-20T09:47:35;99697.97;;;5.95;84.03
75996;BME280;64681;49.738;9.004;2023-12-20T09:50:02;99705.50;;;5.68;84.60
75996;BME280;64681;49.738;9.004;2023-12-20T09:52:28;99703.63;;;5.69;85.12
75996;BME280;64681;49.738;9.004;2023-12-20T09:54:55;99694.91;;;5.68;85.13
75996;BME280;64681;49.738;9.004;2023-12-20T09:57:22;99698.47;;;5.97;84.69
75996;BME280;64681;49.738;9.004;2023-12-20T09:59:48;99710.59;;;5.98;84.03
75996;BME280;64681;49.738;9.004;2023-12-20T10:02:13;99708.13;;;5.88;84.62
75996;BME280;64681;49.738;9.004;2023-12-20T10:04:48;99692.50;;;5.53;85.71
75996;BME280;64681;49.738;9.004;2023-12-20T10:07:14;99706.34;;;5.83;85.04
75996;BME280;64681;49.738;9.004;2023-12-20T10:09:40;99699.38;;;5.87;85.67
75996;BME280;64681;49.738;9.004;2023-12-20T10:12:07;99694.22;;;5.44;85.79
75996;BME280;64681;49.738;9.004;2023-12-20T10:14:33;99709.97;;;5.87;85.98
75996;BME280;64681;49.738;9.004;2023-12-20T10:17:03;99687.34;;;5.95;84.76
75996;BME280;64681;49.738;9.004;2023-12-20T10:19:29;99695.75;;;6.02;84.18
75996;BME280;64681;49.738;9.004;2023-12-20T10:21:54;99699.81;;;5.94;82.97
75996;BME280;64681;49.738;9.004;2023-12-20T10:24:20;99700.31;;;5.96;83.14
75996;BME280;64681;49.738;9.004;2023-12-20T10:26:46;99697.28;;;5.70;85.29
75996;BME280;64681;49.738;9.004;2023-12-20T10:29:11;99697.44;;;5.93;85.33
75996;BME280;64681;49.738;9.004;2023-12-20T10:31:37;99678.66;;;6.08;84.22
75996;BME280;64681;49.738;9.004;2023-12-20T10:34:04;99686.75;;;5.98;84.23
75996;BME280;64681;49.738;9.004;2023-12-20T10:36:32;99692.16;;;5.93;84.44
75996;BME280;64681;49.738;9.004;2023-12-20T10:38:58;99672.47;;;5.80;84.36
75996;BME280;64681;49.738;9.004;2023-12-20T10:41:26;99683.47;;;5.87;85.22
75996;BME280;64681;49.738;9.004;2023-12-20T10:43:59;99678.16;;;5.73;85.83
75996;BME280;64681;49.738;9.004;2023-12-20T10:46:26;99663.69;;;5.65;85.30
75996;BME280;64681;49.738;9.004;2023-12-20T10:48:54;99670.22;;;5.87;84.48
75996;BME280;64681;49.738;9.004;2023-12-20T10:51:21;99674.50;;;5.69;84.87
75996;BME280;64681;49.738;9.004;2023-12-20T10:53:48;99674.09;;;5.95;84.76
75996;BME280;64681;49.738;9.004;2023-12-20T10:56:17;99665.13;;;5.77;84.77
75996;BME280;64681;49.738;9.004;2023-12-20T10:58:50;99664.28;;;5.95;84.70
75996;BME280;64681;49.738;9.004;2023-12-20T11:01:18;99667.44;;;5.97;84.68
75996;BME280;64681;49.738;9.004;2023-12-20T11:03:51;99667.00;;;6.09;82.90
75996;BME280;64681;49.738;9.004;2023-12-20T11:09:24;99660.66;;;5.91;83.61
75996;BME280;64681;49.738;9.004;2023-12-20T11:12:25;99655.13;;;6.07;84.92
75996;BME280;64681;49.738;9.004;2023-12-20T11:15:26;99651.00;;;6.28;82.02
75996;BME280;64681;49.738;9.004;2023-12-20T11:18:00;99633.03;;;5.78;83.63
75996;BME280;64681;49.738;9.004;2023-12-20T11:20:40;99647.97;;;6.21;83.49
75996;BME280;64681;49.738;9.004;2023-12-20T11:23:08;99642.09;;;6.66;79.21
75996;BME280;64681;49.738;9.004;2023-12-20T11:25:52;99641.84;;;6.90;80.14
75996;BME280;64681;49.738;9.004;2023-12-20T11:28:23;99645.25;;;6.54;80.29
75996;BME280;64681;49.738;9.004;2023-12-20T11:30:51;99642.66;;;6.77;80.64
75996;BME280;64681;49.738;9.004;2023-12-20T11:33:22;99641.34;;;6.88;78.25
75996;BME280;64681;49.738;9.004;2023-12-20T11:35:48;99636.38;;;6.73;79.14
75996;BME280;64681;49.738;9.004;2023-12-20T11:38:15;99638.63;;;6.52;79.25
75996;BME280;64681;49.738;9.004;2023-12-20T11:40:44;99644.22;;;6.36;80.83
75996;BME280;64681;49.738;9.004;2023-12-20T11:43:10;99642.94;;;6.75;79.35
75996;BME280;64681;49.738;9.004;2023-12-20T11:45:35;99628.97;;;6.97;78.42
75996;BME280;64681;49.738;9.004;2023-12-20T11:48:02;99639.38;;;6.94;78.19
75996;BME280;64681;49.738;9.004;2023-12-20T11:50:28;99643.13;;;6.79;79.47
75996;BME280;64681;49.738;9.004;2023-12-20T11:52:55;99647.41;;;6.66;79.00
75996;BME280;64681;49.738;9.004;2023-12-20T11:55:24;99637.66;;;6.61;79.88
75996;BME280;64681;49.738;9.004;2023-12-20T11:57:50;99642.84;;;6.80;78.53
75996;BME280;64681;49.738;9.004;2023-12-20T12:00:17;99650.94;;;6.61;77.43
75996;BME280;64681;49.738;9.004;2023-12-20T12:02:43;99641.88;;;6.34;78.62
75996;BME280;64681;49.738;9.004;2023-12-20T12:05:08;99628.91;;;6.33;79.58
75996;BME280;64681;49.738;9.004;2023-12-20T12:07:35;99640.31;;;6.47;79.04
75996;BME280;64681;49.738;9.004;2023-12-20T12:10:01;99637.06;;;6.09;78.88
75996;BME280;64681;49.738;9.004;2023-12-20T12:12:29;99641.19;;;6.43;78.85
75996;BME280;64681;49.738;9.004;2023-12-20T12:14:55;99633.81;;;6.26;78.40
75996;BME280;64681;49.738;9.004;2023-12-20T12:17:23;99637.84;;;6.51;78.07
75996;BME280;64681;49.738;9.004;2023-12-20T12:19:48;99632.47;;;6.42;79.56
75996;BME280;64681;49.738;9.004;2023-12-20T12:22:15;99644.59;;;6.15;79.56
75996;BME280;64681;49.738;9.004;2023-12-20T12:24:44;99629.00;;;6.14;79.87
75996;BME280;64681;49.738;9.004;2023-12-20T12:27:12;99620.66;;;6.34;78.95
75996;BME280;64681;49.738;9.004;2023-12-20T12:29:38;99631.06;;;6.17;77.77
75996;BME280;64681;49.738;9.004;2023-12-20T12:32:08;99621.84;;;6.28;79.66
75996;BME280;64681;49.738;9.004;2023-12-20T12:34:35;99623.22;;;6.26;78.17
75996;BME280;64681;49.738;9.004;2023-12-20T12:37:02;99620.09;;;6.38;78.14
75996;BME280;64681;49.738;9.004;2023-12-20T12:39:29;99616.25;;;6.44;78.29
75996;BME280;64681;49.738;9.004;2023-12-20T12:41:56;99613.28;;;6.45;77.71
75996;BME280;64681;49.738;9.004;2023-12-20T12:44:22;99614.16;;;6.41;77.87
75996;BME280;64681;49.738;9.004;2023-12-20T12:46:52;99609.25;;;6.06;79.21
75996;BME280;64681;49.738;9.004;2023-12-20T12:49:22;99630.09;;;6.27;79.22
75996;BME280;64681;49.738;9.004;2023-12-20T12:51:47;99618.00;;;6.07;79.33
75996;BME280;64681;49.738;9.004;2023-12-20T12:54:13;99612.94;;;5.91;77.94
75996;BME280;64681;49.738;9.004;2023-12-20T12:56:41;99636.84;;;6.05;78.83
75996;BME280;64681;49.738;9.004;2023-12-20T12:59:08;99648.25;;;6.20;78.32
75996;BME280;64681;49.738;9.004;2023-12-20T13:01:33;99626.72;;;6.07;78.50
75996;BME280;64681;49.738;9.004;2023-12-20T13:03:59;99618.13;;;5.96;78.11
75996;BME280;64681;49.738;9.004;2023-12-20T13:06:26;99603.28;;;6.00;79.34
75996;BME280;64681;49.738;9.004;2023-12-20T13:08:52;99565.84;;;6.02;79.02
75996;BME280;64681;49.738;9.004;2023-12-20T13:11:18;99567.91;;;6.47;77.46
75996;BME280;64681;49.738;9.004;2023-12-20T13:13:43;99572.03;;;6.25;78.50
75996;BME280;64681;49.738;9.004;2023-12-20T13:16:09;99563.91;;;6.08;80.60
75996;BME280;64681;49.738;9.004;2023-12-20T13:18:34;99540.31;;;5.92;82.26
75996;BME280;64681;49.738;9.004;2023-12-20T13:21:00;99553.72;;;5.82;81.84